Time;durP1;ratioP1;P1;durP2;ratioP2;P2;SDS_P1;SDS_P2;PMS_P1;PMS_P2;Temp;Humidity;BMP_temperature;BMP_pressure;BME280_temperature;BME280_humidity;BME280_pressure;Samples;Min_cycle;Max_cycle;Signal;HPM_P1;HPM_P2
2021/05/21 11:22:30;;;;;;;10.73;2.35;;;;;;;;;;5146839;27;21017;-72
2021/05/21 11:24:58;;;;;;;3.65;1.80;;;;;;;;;;5150047;27;20065;-61
2021/05/21 11:30:19;;;;;;;6.45;1.63;;;;;;;;;;5094335;27;20954;-60
2021/05/21 11:59:38;;;;;;;10.25;6.70;;;;;;;18.01;58.07;100883.88;5054856;27;942816;-56
2021/05/21 12:02:05;;;;;;;24.70;9.25;;;;;;;17.79;60.63;100875.69;5004528;27;102915;-66
2021/05/21 12:04:34;;;;;;;34.83;15.93;;;;;;;17.55;60.92;100876.00;5006897;27;109915;-67
2021/05/21 12:07:00;;;;;;;19.55;11.70;;;;;;;17.41;61.32;100876.06;4997686;27;103057;-66
2021/05/21 12:09:27;;;;;;;23.60;14.05;;;;;;;17.35;61.73;100876.53;5003779;27;102879;-66
2021/05/21 12:12:08;;;;;;;25.80;14.27;;;;;;;17.31;62.21;100868.09;4955862;27;105776;-66
2021/05/21 12:14:35;;;;;;;;;;;;;;;17.23;60.74;100872.38;5033167;27;103875;-67
2021/05/21 12:17:03;;;;;;;24.15;11.77;;;;;;;17.20;61.53;100873.03;5016372;27;103414;-66
2021/05/21 12:19:29;;;;;;;18.77;9.75;;;;;;;17.17;61.25;100875.59;5013264;27;103580;-66
2021/05/21 12:21:56;;;;;;;20.73;10.38;;;;;;;17.13;62.46;100882.81;5015550;27;104736;-67
2021/05/21 12:24:25;;;;;;;10.73;6.38;;;;;;;17.11;61.77;100876.81;5009622;27;103731;-65
2021/05/21 12:26:54;;;;;;;11.80;6.88;;;;;;;17.10;60.98;100878.75;5010848;27;102711;-66
2021/05/21 12:29:22;;;;;;;16.80;4.45;;;;;;;17.08;60.68;100877.44;5008777;27;102572;-66
2021/05/21 12:31:51;;;;;;;22.40;7.10;;;;;;;17.05;61.42;100879.66;5012708;27;102117;-65
2021/05/21 12:34:20;;;;;;;16.02;7.10;;;;;;;17.02;59.26;100869.31;5015398;27;103887;-68
2021/05/21 12:36:56;;;;;;;28.45;13.43;;;;;;;17.00;60.76;100870.75;5017679;27;102556;-68
2021/05/21 12:39:30;;;;;;;75.70;22.05;;;;;;;16.99;60.87;100864.44;5012452;27;102769;-69
2021/05/21 12:41:57;;;;;;;28.02;10.23;;;;;;;16.97;59.81;100861.16;5013838;27;102781;-68
2021/05/21 12:44:24;;;;;;;12.57;5.05;;;;;;;16.97;59.48;100871.38;5013532;27;102726;-68
2021/05/21 12:46:53;;;;;;;9.15;4.50;;;;;;;16.96;58.79;100870.56;5012171;27;102207;-69
2021/05/21 12:49:26;;;;;;;10.75;6.00;;;;;;;16.95;59.90;100862.59;5017077;27;102936;-69
2021/05/21 12:51:54;;;;;;;12.82;5.10;;;;;;;16.93;59.54;100865.66;5010200;27;102858;-69
2021/05/21 12:54:23;;;;;;;8.85;6.22;;;;;;;16.91;60.28;100873.41;5009657;27;103819;-69
2021/05/21 12:56:56;;;;;;;10.60;4.53;;;;;;;16.90;60.16;100882.78;5012463;28;103413;-68
2021/05/21 12:59:32;;;;;;;6.85;3.38;;;;;;;16.87;59.08;100877.91;5008739;27;102770;-68
2021/05/21 13:01:59;;;;;;;5.47;2.80;;;;;;;16.85;59.46;100884.84;5010536;27;105060;-68
2021/05/21 13:04:26;;;;;;;4.00;1.85;;;;;;;16.82;59.19;100886.28;5015134;27;103825;-68
2021/05/21 13:06:55;;;;;;;;;;;;;;;16.81;59.19;100879.16;5014655;27;102661;-68
2021/05/21 13:09:23;;;;;;;5.43;3.03;;;;;;;16.80;60.13;100888.50;5006550;27;102527;-68
2021/05/21 13:11:54;;;;;;;4.25;3.55;;;;;;;16.77;60.42;100894.63;4999320;28;102948;-68
2021/05/21 13:14:22;;;;;;;8.80;2.88;;;;;;;16.79;59.30;100889.63;5001458;28;103924;-68
2021/05/21 13:16:51;;;;;;;4.80;2.42;;;;;;;16.79;59.77;100892.38;4999786;28;102146;-68
2021/05/21 13:19:24;;;;;;;19.80;3.15;;;;;;;16.76;60.09;100904.78;5000070;28;102166;-68
2021/05/21 13:21:56;;;;;;;25.02;4.00;;;;;;;16.75;61.34;100907.88;5004248;28;102508;-68
2021/05/21 13:24:29;;;;;;;12.32;4.18;;;;;;;16.73;61.44;100899.91;5000002;28;103984;-68
2021/05/21 13:26:56;;;;;;;9.73;3.78;;;;;;;16.76;60.95;100909.47;4995418;28;102424;-68
2021/05/21 13:29:23;;;;;;;9.60;4.68;;;;;;;16.76;60.67;100901.25;4998933;28;102587;-69
2021/05/21 13:31:50;;;;;;;13.55;5.28;;;;;;;16.73;61.58;100899.06;5003001;28;103073;-68
2021/05/21 13:34:17;;;;;;;5.82;3.72;;;;;;;16.74;60.90;100901.56;4997652;28;103811;-68
2021/05/21 13:36:44;;;;;;;7.95;2.88;;;;;;;16.74;60.84;100898.00;5004644;28;103852;-68
2021/05/21 13:39:12;;;;;;;11.15;2.90;;;;;;;16.73;60.99;100902.66;5008293;28;102519;-68
2021/05/21 13:41:39;;;;;;;7.82;2.45;;;;;;;16.71;61.85;100906.81;5002518;28;102458;-67
2021/05/21 13:44:06;;;;;;;11.80;3.63;;;;;;;16.70;61.78;100907.97;5005585;28;103835;-68
2021/05/21 13:46:33;;;;;;;8.25;2.55;;;;;;;16.71;62.07;100912.31;5002202;28;102621;-68
2021/05/21 13:49:00;;;;;;;5.00;2.00;;;;;;;16.71;61.90;100909.56;4998194;28;103536;-68
2021/05/21 13:51:27;;;;;;;5.78;1.80;;;;;;;16.71;61.50;100906.81;5011723;28;102754;-68
2021/05/21 13:53:54;;;;;;;9.25;1.95;;;;;;;16.70;61.43;100906.03;4999118;28;103860;-68
2021/05/21 13:56:21;;;;;;;7.05;1.60;;;;;;;16.68;61.69;100908.25;5003747;28;102884;-68
2021/05/21 13:58:48;;;;;;;7.68;1.80;;;;;;;16.71;61.26;100902.13;5018304;27;104956;-68
2021/05/21 14:01:15;;;;;;;12.18;3.60;;;;;;;16.71;61.96;100906.81;5001600;28;102689;-69
2021/05/21 14:03:41;;;;;;;12.52;4.85;;;;;;;16.69;62.71;100915.38;5000073;28;103939;-68
2021/05/21 14:06:08;;;;;;;7.20;4.13;;;;;;;16.71;62.92;100912.31;5000123;28;102750;-69
2021/05/21 14:08:35;;;;;;;15.20;4.20;;;;;;;16.73;63.10;100912.81;5004500;28;104161;-69
2021/05/21 14:11:03;;;;;;;7.85;4.13;;;;;;;16.73;62.95;100908.16;4999756;28;102340;-69
2021/05/21 14:13:31;;;;;;;8.93;6.60;;;;;;;16.75;63.00;100907.88;4997635;28;103778;-69
2021/05/21 14:15:57;;;;;;;8.05;5.95;;;;;;;16.76;62.87;100909.47;5002930;28;103508;-69
2021/05/21 14:18:24;;;;;;;7.05;3.47;;;;;;;16.77;62.37;100905.63;5003961;28;102412;-68
2021/05/21 14:20:50;;;;;;;18.08;3.45;;;;;;;16.78;62.14;100913.56;5003777;28;102846;-69
2021/05/21 14:23:17;;;;;;;5.85;2.70;;;;;;;16.76;62.21;100920.47;5005785;28;104227;-69
2021/05/21 14:25:44;;;;;;;7.00;3.10;;;;;;;16.75;62.27;100902.38;5003378;28;102582;-68
2021/05/21 14:28:11;;;;;;;4.45;2.38;;;;;;;16.75;61.44;100905.94;4999887;28;102818;-69
2021/05/21 14:30:38;;;;;;;18.40;2.90;;;;;;;16.75;61.80;100913.38;5000538;28;102317;-67
2021/05/21 14:33:08;;;;;;;6.32;2.75;;;;;;;16.72;62.79;100906.50;4992809;28;103886;-66
2021/05/21 14:35:34;;;;;;;9.57;2.10;;;;;;;16.69;62.34;100900.81;5000752;28;102386;-68
2021/05/21 14:38:03;;;;;;;6.07;2.20;;;;;;;16.66;62.06;100905.00;4999098;28;102814;-67
2021/05/21 14:40:29;;;;;;;2.05;1.60;;;;;;;16.64;61.49;100901.75;4989443;28;103363;-68
2021/05/21 14:42:56;;;;;;;4.22;2.20;;;;;;;16.64;62.55;100909.19;4996394;28;103859;-67
2021/05/21 14:45:22;;;;;;;3.60;2.20;;;;;;;16.63;61.59;100896.56;5001473;28;102285;-67
2021/05/21 14:47:51;;;;;;;2.28;1.95;;;;;;;16.63;61.33;100899.31;5011427;27;102617;-68
2021/05/21 14:50:17;;;;;;;3.15;1.80;;;;;;;16.61;62.32;100902.34;5001506;28;102555;-67
2021/05/21 14:52:45;;;;;;;3.00;1.42;;;;;;;16.61;61.51;100907.84;4998902;28;104043;-68
2021/05/21 14:55:14;;;;;;;2.83;1.60;;;;;;;16.61;62.08;100912.53;5001569;28;102183;-68
2021/05/21 14:57:41;;;;;;;4.75;2.00;;;;;;;16.60;63.05;100919.16;4999883;28;102794;-67
2021/05/21 15:00:10;;;;;;;3.45;1.50;;;;;;;16.58;62.52;100916.69;5001354;28;102605;-67
2021/05/21 15:02:38;;;;;;;4.03;2.30;;;;;;;16.58;62.76;100919.44;5004330;27;103699;-68
2021/05/21 15:05:10;;;;;;;2.72;1.88;;;;;;;16.55;62.89;100915.41;4996202;28;102363;-67
2021/05/21 15:07:37;;;;;;;2.75;1.73;;;;;;;16.54;62.80;100919.25;5010376;28;102064;-66
2021/05/21 15:10:06;;;;;;;2.45;1.85;;;;;;;16.53;63.36;100928.63;4997738;28;102792;-67
2021/05/21 15:12:33;;;;;;;3.40;2.15;;;;;;;16.54;63.08;100923.94;5005630;28;104022;-67
2021/05/21 15:15:05;;;;;;;5.63;2.10;;;;;;;16.54;63.33;100930.25;5005268;28;102752;-67
2021/05/21 15:25:48;;;;;;;3.83;1.63;;;;;;;16.51;62.45;100924.53;4999448;28;102443;-59
2021/05/21 15:28:14;;;;;;;2.40;1.23;;;;;;;16.50;62.25;100937.47;5008872;28;102395;-59
2021/05/21 15:30:47;;;;;;;2.50;1.80;;;;;;;16.48;62.76;100942.47;5002081;28;102501;-59
2021/05/21 15:33:14;;;;;;;4.43;1.48;;;;;;;16.47;62.39;100940.81;5013213;28;103510;-59
2021/05/21 15:35:42;;;;;;;2.50;1.70;;;;;;;16.46;62.33;100939.19;5012900;28;102040;-59
2021/05/21 15:38:13;;;;;;;2.35;1.70;;;;;;;16.45;62.64;100943.06;5016374;27;102635;-59
2021/05/21 15:40:41;;;;;;;1.45;1.13;;;;;;;16.43;62.37;100945.31;5006968;28;102729;-59
2021/05/21 15:46:08;;;;;;;3.10;1.48;;;;;;;16.42;62.96;100938.19;5001073;28;102450;-59
2021/05/21 15:48:39;;;;;;;4.80;1.98;;;;;;;16.40;62.65;100940.41;5008377;28;102142;-59
2021/05/21 15:51:43;;;;;;;2.30;1.45;;;;;;;16.41;63.17;100936.56;4996152;28;102313;-59
2021/05/21 15:59:17;;;;;;;2.47;2.08;;;;;;;16.35;63.52;100946.03;4994857;28;102147;-59
2021/05/21 16:01:43;;;;;;;9.15;3.10;;;;;;;16.34;63.47;100947.16;4999400;28;102414;-59
2021/05/21 16:04:10;;;;;;;5.35;2.83;;;;;;;16.33;63.79;100940.00;4999914;28;103908;-59
2021/05/21 16:06:42;;;;;;;2.65;2.45;;;;;;;16.32;64.25;100944.69;5012224;27;102484;-59
2021/05/21 16:09:09;;;;;;;2.55;2.20;;;;;;;16.31;63.40;100947.75;5009301;28;102149;-59
2021/05/21 16:11:38;;;;;;;4.00;3.60;;;;;;;16.34;64.18;100952.63;5003313;28;103519;-53
2021/05/21 16:14:05;;;;;;;16.25;4.82;;;;;;;16.35;64.36;100948.78;5003484;28;103464;-59
2021/05/21 16:16:32;;;;;;;10.63;4.40;;;;;;;16.33;64.57;100951.00;5000049;28;102210;-59
2021/05/21 16:19:00;;;;;;;10.60;4.85;;;;;;;16.29;64.89;100955.47;5000288;28;102605;-59
2021/05/21 16:21:28;;;;;;;12.85;5.20;;;;;;;16.27;65.04;100953.03;5000870;28;102164;-59
2021/05/21 16:23:59;;;;;;;12.70;5.55;;;;;;;16.26;64.86;100956.91;5017406;28;103751;-59
2021/05/21 16:26:27;;;;;;;11.50;6.22;;;;;;;16.26;65.19;100956.06;5005109;27;102598;-59
2021/05/21 16:28:54;;;;;;;14.20;7.57;;;;;;;16.23;65.46;100952.03;4999166;27;102205;-59
2021/05/21 16:31:21;;;;;;;24.67;7.53;;;;;;;16.27;65.73;100954.97;4996823;28;102686;-62
2021/05/21 16:33:48;;;;;;;21.27;7.35;;;;;;;16.28;66.10;100953.84;5005937;28;103773;-58
2021/05/21 16:36:16;;;;;;;23.70;6.63;;;;;;;16.29;66.27;100966.44;4998712;28;102844;-64
2021/05/21 16:38:43;;;;;;;26.90;6.57;;;;;;;16.28;66.62;100960.16;5000089;28;102550;-66
2021/05/21 16:41:17;;;;;;;16.65;4.75;;;;;;;16.28;66.91;100956.59;5003167;28;102915;-60
2021/05/21 16:43:44;;;;;;;24.90;4.53;;;;;;;16.27;66.79;100957.72;4997913;28;103867;-61
2021/05/21 16:46:11;;;;;;;21.55;4.43;;;;;;;16.24;66.88;100952.84;4996272;28;102554;-61
2021/05/21 16:48:39;;;;;;;19.92;3.65;;;;;;;16.21;66.68;100962.47;5012886;28;102089;-61
2021/05/21 16:51:06;;;;;;;7.18;3.00;;;;;;;16.19;66.96;100966.63;5009975;28;102375;-61
2021/05/21 16:53:40;;;;;;;5.43;2.97;;;;;;;16.19;67.09;100961.16;5008439;28;104107;-61
2021/05/21 16:56:08;;;;;;;5.90;2.50;;;;;;;16.17;67.06;100963.41;5005361;28;102340;-62
2021/05/21 16:58:37;;;;;;;7.03;2.65;;;;;;;16.18;67.39;100968.56;5000430;28;102687;-58
2021/05/21 17:01:04;;;;;;;15.00;2.58;;;;;;;16.19;67.74;100972.97;5000440;28;102470;-61
2021/05/21 17:03:32;;;;;;;14.82;2.75;;;;;;;16.18;67.30;100965.03;4997825;28;103610;-61
2021/05/21 17:05:59;;;;;;;12.60;2.78;;;;;;;16.15;67.14;100971.13;5009097;28;101984;-61
2021/05/21 17:08:26;;;;;;;8.18;2.28;;;;;;;16.13;67.40;100968.69;5013434;28;102468;-61
2021/05/21 17:10:54;;;;;;;4.15;2.38;;;;;;;16.10;67.39;100974.78;5012376;28;102608;-61
2021/05/21 17:13:21;;;;;;;10.10;4.30;;;;;;;16.07;67.76;100976.19;5008189;28;103763;-60
2021/05/21 17:45:06;;;;;;;13.10;6.40;;;;;;;16.13;67.60;100995.31;5010544;28;103728;-61
2021/05/21 17:47:47;;;;;;;7.60;6.40;;;;;;;16.12;67.78;101002.75;5011033;28;102292;-60
2021/05/21 18:08:53;;;;;;;6.07;4.97;;;;;;;16.10;67.56;101014.03;5008217;28;102431;-61
2021/05/21 18:11:46;;;;;;;10.13;5.43;;;;;;;16.10;68.00;101016.75;5013167;28;102631;-61
2021/05/21 18:28:22;;;;;;;6.18;4.82;;;;;;;16.08;67.60;101038.22;4990096;28;103875;-61
2021/05/21 18:44:24;;;;;;;4.82;4.38;;;;;;;16.08;67.95;101042.88;5004751;28;102825;-61
2021/05/21 18:54:52;;;;;;;5.72;3.88;;;;;;;16.07;68.19;101042.06;5002641;28;102232;-61
2021/05/21 19:02:53;;;;;;;5.93;3.47;;;;;;;16.06;67.84;101056.13;5014740;28;102079;-62
2021/05/21 19:05:24;;;;;;;6.00;4.10;;;;;;;16.07;68.38;101058.53;5001242;27;102553;-61
2021/05/21 19:13:26;;;;;;;7.18;4.28;;;;;;;16.07;67.97;101068.72;5004875;28;102491;-61
2021/05/21 19:16:00;;;;;;;4.50;4.05;;;;;;;16.07;68.43;101066.78;5002590;28;103028;-61
2021/05/21 19:18:32;;;;;;;4.82;4.07;;;;;;;16.06;68.15;101073.41;5006730;28;102522;-61
2021/05/21 19:23:29;;;;;;;4.97;4.20;;;;;;;16.06;68.27;101065.16;4999073;28;102265;-62
2021/05/21 19:26:13;;;;;;;5.80;3.92;;;;;;;16.06;68.39;101078.06;4992989;28;102294;-61
2021/05/21 19:31:28;;;;;;;4.20;3.70;;;;;;;16.06;68.33;101067.91;5004527;28;104003;-61
2021/05/21 19:44:38;;;;;;;6.78;3.78;;;;;;;16.05;68.58;101066.28;4997201;28;102342;-62
2021/05/21 19:47:07;;;;;;;3.83;3.42;;;;;;;16.06;68.42;101059.66;4998487;28;102962;-61
2021/05/21 20:11:55;;;;;;;5.32;3.65;;;;;;;16.04;68.38;101107.75;4997224;28;102497;-62
2021/05/21 20:14:23;;;;;;;4.03;3.47;;;;;;;16.01;68.52;101106.44;5021506;27;104155;-61
2021/05/21 20:16:56;;;;;;;4.03;3.28;;;;;;;16.04;68.24;101113.22;4994710;28;102488;-63
2021/05/21 20:19:25;;;;;;;5.20;4.35;;;;;;;16.03;68.65;101114.34;5005206;28;102191;-62
2021/05/21 20:21:52;;;;;;;4.40;3.60;;;;;;;16.03;68.69;101106.94;5009859;28;102390;-60
2021/05/21 20:24:19;;;;;;;4.90;4.40;;;;;;;16.03;68.56;101115.16;5003666;28;103933;-61
2021/05/21 20:26:47;;;;;;;4.95;4.45;;;;;;;16.01;68.42;101109.19;5009717;28;102215;-62
2021/05/21 20:29:34;;;;;;;4.50;4.10;;;;;;;16.01;68.52;101114.66;4997850;28;102383;-62
2021/05/21 20:37:49;;;;;;;4.22;3.83;;;;;;;16.03;68.50;101128.09;5006902;28;102513;-61
2021/05/21 21:01:44;;;;;;;4.45;4.00;;;;;;;16.00;68.76;101134.97;5006056;28;102487;-62
2021/05/21 21:07:46;;;;;;;4.65;3.97;;;;;;;16.00;68.54;101148.69;5009545;28;103993;-62
2021/05/21 21:09:53;;;;;;;3.97;3.58;;;;;;;15.99;68.66;101155.31;5004316;28;102905;-62
2021/05/21 21:12:28;;;;;;;4.22;3.72;;;;;;;15.99;68.53;101158.06;5010092;27;104030;-62
2021/05/21 21:59:12;;;;;;;3.53;3.22;;;;;;;15.97;68.73;101130.06;5007039;28;103906;-62
2021/05/21 22:01:49;;;;;;;4.30;3.40;;;;;;;15.96;68.80;101128.44;4992136;28;102189;-61
2021/05/21 22:04:21;;;;;;;4.22;3.50;;;;;;;15.97;68.86;101124.59;5012451;28;102432;-62
2021/05/21 22:25:00;;;;;;;4.20;3.15;;;;;;;15.96;68.58;101127.63;5007211;28;102958;-62
2021/05/21 22:27:28;;;;;;;4.03;3.63;;;;;;;15.95;68.76;101124.09;5010008;28;102523;-61
2021/05/21 22:29:57;;;;;;;3.28;2.97;;;;;;;15.95;68.81;101124.09;5012708;28;103942;-62
2021/05/21 22:32:25;;;;;;;4.60;3.00;;;;;;;15.97;68.46;101123.78;5015580;27;102102;-62
2021/05/21 22:34:52;;;;;;;3.92;3.10;;;;;;;15.95;68.89;101118.59;5013577;28;102637;-62
2021/05/21 22:37:19;;;;;;;3.10;2.80;;;;;;;15.96;68.57;101131.19;5016889;28;102504;-62
2021/05/21 22:39:46;;;;;;;3.50;3.20;;;;;;;15.95;68.60;101126.81;5005582;28;103935;-62
2021/05/21 22:42:18;;;;;;;3.47;2.97;;;;;;;15.95;68.66;101146.03;5008040;28;102352;-61
2021/05/21 22:44:45;;;;;;;3.58;3.28;;;;;;;15.95;68.98;101146.03;5012457;28;102364;-61
2021/05/21 22:47:13;;;;;;;3.47;3.17;;;;;;;15.97;68.70;101151.22;5000690;28;102150;-62
2021/05/21 22:49:40;;;;;;;3.85;3.15;;;;;;;15.95;68.73;101154.28;5007280;28;103955;-62
2021/05/21 22:52:07;;;;;;;3.45;3.15;;;;;;;15.95;69.01;101159.78;5003812;28;102532;-62
2021/05/21 22:54:34;;;;;;;3.22;2.92;;;;;;;15.95;68.61;101164.44;5014063;28;102174;-62
2021/05/21 22:57:01;;;;;;;2.75;2.55;;;;;;;15.95;68.88;101158.97;5001544;27;102586;-62
2021/05/21 22:59:27;;;;;;;3.25;2.92;;;;;;;15.95;68.70;101157.03;5000931;28;104120;-62
2021/05/21 23:01:54;;;;;;;4.10;3.20;;;;;;;15.93;68.97;101156.50;4999652;28;102611;-62
2021/05/21 23:04:20;;;;;;;2.75;2.50;;;;;;;15.95;68.95;101176.25;5014078;27;102359;-62
2021/05/21 23:06:48;;;;;;;3.53;3.17;;;;;;;15.95;68.92;101175.44;5016041;28;102186;-62
2021/05/21 23:09:15;;;;;;;3.80;2.92;;;;;;;15.95;68.58;101175.44;5016238;28;103961;-61
2021/05/21 23:12:02;;;;;;;3.90;3.42;;;;;;;15.94;68.99;101173.78;5011941;28;102379;-62
2021/05/21 23:14:32;;;;;;;3.90;3.13;;;;;;;15.95;68.77;101176.25;5017179;28;102822;-62
2021/05/21 23:17:00;;;;;;;3.42;3.13;;;;;;;15.95;68.89;101170.75;4999287;28;102307;-61
2021/05/21 23:19:26;;;;;;;3.22;2.92;;;;;;;15.94;68.96;101166.38;4992244;28;104907;-62
2021/05/21 23:21:54;;;;;;;3.05;2.75;;;;;;;15.94;68.80;101169.13;5005289;28;102376;-62
2021/05/21 23:24:21;;;;;;;3.65;3.25;;;;;;;15.93;68.95;101164.72;5017657;28;102625;-62
2021/05/21 23:26:47;;;;;;;3.63;3.13;;;;;;;15.94;68.85;101168.28;5002803;27;102147;-62
2021/05/21 23:29:14;;;;;;;3.25;2.95;;;;;;;15.94;68.80;101169.13;5003015;28;103374;-62
2021/05/21 23:31:42;;;;;;;3.67;3.03;;;;;;;15.93;68.59;101164.72;5007786;28;102569;-62
2021/05/21 23:34:08;;;;;;;3.67;2.53;;;;;;;15.94;69.11;101163.63;5010891;27;102508;-62
2021/05/21 23:36:35;;;;;;;3.95;2.90;;;;;;;15.94;68.92;101158.16;4997050;28;102497;-62
2021/05/21 23:39:03;;;;;;;3.30;2.88;;;;;;;15.92;68.70;101165.84;5003671;28;103934;-62
2021/05/21 23:41:30;;;;;;;3.22;2.92;;;;;;;15.93;68.99;101167.47;5003133;28;102014;-62
2021/05/21 23:43:56;;;;;;;3.80;3.42;;;;;;;15.94;69.12;101162.78;5014055;28;102158;-62
2021/05/21 23:46:23;;;;;;;3.20;2.90;;;;;;;15.92;68.88;101163.09;5018495;28;102588;-63
2021/05/21 23:48:49;;;;;;;3.40;2.83;;;;;;;15.92;68.94;101163.09;4999036;28;104250;-62
2021/05/21 23:51:16;;;;;;;3.22;2.75;;;;;;;15.93;69.09;101161.16;4998529;28;102398;-63
2021/05/21 23:53:42;;;;;;;2.97;2.67;;;;;;;15.92;69.01;101165.84;5014955;28;102124;-62
2021/05/21 23:56:10;;;;;;;3.17;2.85;;;;;;;15.91;68.90;101169.72;5010581;28;102268;-62
2021/05/21 23:58:36;;;;;;;4.05;2.63;;;;;;;15.93;69.00;101177.63;5002452;28;104190;-62
